sensor_id;sensor_type;location;lat;lon;timestamp;temperature;humidity
21035;DHT22;10676;50.848;3.272;2023-02-02T00:02:00;9.40;99.90
21035;DHT22;10676;50.848;3.272;2023-02-02T00:04:31;9.40;99.90
21035;DHT22;10676;50.848;3.272;2023-02-02T00:06:57;9.40;99.90
21035;DHT22;10676;50.848;3.272;2023-02-02T00:09:26;9.40;99.90
21035;DHT22;10676;50.848;3.272;2023-02-02T00:11:53;9.40;99.90
21035;DHT22;10676;50.848;3.272;2023-02-02T00:14:20;9.50;99.90
21035;DHT22;10676;50.848;3.272;2023-02-02T00:16:50;9.50;99.90
21035;DHT22;10676;50.848;3.272;2023-02-02T00:19:21;9.50;99.90
21035;DHT22;10676;50.848;3.272;2023-02-02T00:21:47;9.50;99.90
21035;DHT22;10676;50.848;3.272;2023-02-02T00:24:15;9.40;99.90
21035;DHT22;10676;50.848;3.272;2023-02-02T00:26:44;9.40;99.90
21035;DHT22;10676;50.848;3.272;2023-02-02T00:29:16;9.50;99.90
21035;DHT22;10676;50.848;3.272;2023-02-02T00:31:41;9.50;99.90
21035;DHT22;10676;50.848;3.272;2023-02-02T00:34:10;9.50;99.90
21035;DHT22;10676;50.848;3.272;2023-02-02T00:36:35;9.50;99.90
21035;DHT22;10676;50.848;3.272;2023-02-02T00:39:01;9.50;99.90
21035;DHT22;10676;50.848;3.272;2023-02-02T00:41:26;9.40;99.90
21035;DHT22;10676;50.848;3.272;2023-02-02T00:43:52;9.40;99.90
21035;DHT22;10676;50.848;3.272;2023-02-02T00:46:40;9.50;99.90
21035;DHT22;10676;50.848;3.272;2023-02-02T00:49:07;9.50;99.90
21035;DHT22;10676;50.848;3.272;2023-02-02T00:51:33;9.50;99.90
21035;DHT22;10676;50.848;3.272;2023-02-02T00:53:58;9.50;99.90
21035;DHT22;10676;50.848;3.272;2023-02-02T00:56:24;9.50;99.90
21035;DHT22;10676;50.848;3.272;2023-02-02T00:58:50;9.50;99.90
21035;DHT22;10676;50.848;3.272;2023-02-02T01:01:17;9.50;99.90
21035;DHT22;10676;50.848;3.272;2023-02-02T01:03:45;9.50;99.90
21035;DHT22;10676;50.848;3.272;2023-02-02T01:06:11;9.50;99.90
21035;DHT22;10676;50.848;3.272;2023-02-02T01:08:36;9.50;99.90
21035;DHT22;10676;50.848;3.272;2023-02-02T01:11:02;9.50;99.90
21035;DHT22;10676;50.848;3.272;2023-02-02T01:13:28;9.50;99.90
21035;DHT22;10676;50.848;3.272;2023-02-02T01:15:58;9.40;99.90
21035;DHT22;10676;50.848;3.272;2023-02-02T01:18:23;9.50;99.90
21035;DHT22;10676;50.848;3.272;2023-02-02T01:21:09;9.50;99.90
21035;DHT22;10676;50.848;3.272;2023-02-02T01:23:36;9.50;99.90
21035;DHT22;10676;50.848;3.272;2023-02-02T01:26:03;9.50;99.90
21035;DHT22;10676;50.848;3.272;2023-02-02T01:28:29;9.50;99.90
21035;DHT22;10676;50.848;3.272;2023-02-02T01:30:56;9.50;99.90
21035;DHT22;10676;50.848;3.272;2023-02-02T01:33:23;9.50;99.90
21035;DHT22;10676;50.848;3.272;2023-02-02T01:35:55;9.50;99.90
21035;DHT22;10676;50.848;3.272;2023-02-02T01:38:22;9.40;99.90
21035;DHT22;10676;50.848;3.272;2023-02-02T01:40:53;9.40;99.90
21035;DHT22;10676;50.848;3.272;2023-02-02T01:43:29;9.40;99.90
21035;DHT22;10676;50.848;3.272;2023-02-02T01:45:57;9.40;99.90
21035;DHT22;10676;50.848;3.272;2023-02-02T01:48:31;9.50;99.90
21035;DHT22;10676;50.848;3.272;2023-02-02T01:51:07;9.40;99.90
21035;DHT22;10676;50.848;3.272;2023-02-02T01:53:34;9.40;99.90
21035;DHT22;10676;50.848;3.272;2023-02-02T01:56:02;9.40;99.90
21035;DHT22;10676;50.848;3.272;2023-02-02T01:58:34;9.40;99.90
21035;DHT22;10676;50.848;3.272;2023-02-02T02:01:00;9.50;99.90
21035;DHT22;10676;50.848;3.272;2023-02-02T02:03:28;9.40;99.90
21035;DHT22;10676;50.848;3.272;2023-02-02T02:08:30;9.30;99.90
21035;DHT22;10676;50.848;3.272;2023-02-02T02:10:58;9.20;99.90
21035;DHT22;10676;50.848;3.272;2023-02-02T02:13:25;9.20;99.90
21035;DHT22;10676;50.848;3.272;2023-02-02T02:19:14;9.20;99.90
21035;DHT22;10676;50.848;3.272;2023-02-02T02:22:04;9.30;99.90
21035;DHT22;10676;50.848;3.272;2023-02-02T02:25:22;9.30;99.90
21035;DHT22;10676;50.848;3.272;2023-02-02T02:28:33;9.30;99.90
21035;DHT22;10676;50.848;3.272;2023-02-02T02:34:08;9.20;99.90
21035;DHT22;10676;50.848;3.272;2023-02-02T02:36:51;9.20;99.90
21035;DHT22;10676;50.848;3.272;2023-02-02T02:39:44;9.20;99.90
21035;DHT22;10676;50.848;3.272;2023-02-02T02:42:19;9.20;99.90
21035;DHT22;10676;50.848;3.272;2023-02-02T02:44:47;9.20;99.90
21035;DHT22;10676;50.848;3.272;2023-02-02T02:47:14;9.10;99.90
21035;DHT22;10676;50.848;3.272;2023-02-02T02:49:45;9.10;99.90
21035;DHT22;10676;50.848;3.272;2023-02-02T02:52:11;9.20;99.90
21035;DHT22;10676;50.848;3.272;2023-02-02T03:00:29;9.20;99.90
21035;DHT22;10676;50.848;3.272;2023-02-02T03:06:14;9.20;99.90
21035;DHT22;10676;50.848;3.272;2023-02-02T03:09:05;9.20;99.90
21035;DHT22;10676;50.848;3.272;2023-02-02T03:11:33;9.20;99.90
21035;DHT22;10676;50.848;3.272;2023-02-02T03:14:00;9.10;99.90
21035;DHT22;10676;50.848;3.272;2023-02-02T03:16:26;9.10;99.90
21035;DHT22;10676;50.848;3.272;2023-02-02T03:18:52;9.10;99.90
21035;DHT22;10676;50.848;3.272;2023-02-02T03:21:20;9.20;99.90
21035;DHT22;10676;50.848;3.272;2023-02-02T03:23:46;9.20;99.90
21035;DHT22;10676;50.848;3.272;2023-02-02T03:26:12;9.20;99.90
21035;DHT22;10676;50.848;3.272;2023-02-02T03:28:38;9.20;99.90
21035;DHT22;10676;50.848;3.272;2023-02-02T03:31:04;9.20;99.90
21035;DHT22;10676;50.848;3.272;2023-02-02T03:33:32;9.20;99.90
21035;DHT22;10676;50.848;3.272;2023-02-02T03:35:59;9.20;99.90
21035;DHT22;10676;50.848;3.272;2023-02-02T03:38:25;9.10;99.90
21035;DHT22;10676;50.848;3.272;2023-02-02T03:40:51;9.10;99.90
21035;DHT22;10676;50.848;3.272;2023-02-02T03:43:23;9.10;99.90
21035;DHT22;10676;50.848;3.272;2023-02-02T03:46:00;9.20;99.90
21035;DHT22;10676;50.848;3.272;2023-02-02T03:48:26;9.20;99.90
21035;DHT22;10676;50.848;3.272;2023-02-02T03:50:52;9.20;99.90
21035;DHT22;10676;50.848;3.272;2023-02-02T03:53:18;9.10;99.90
21035;DHT22;10676;50.848;3.272;2023-02-02T03:55:44;9.10;99.90
21035;DHT22;10676;50.848;3.272;2023-02-02T03:58:10;9.10;99.90
21035;DHT22;10676;50.848;3.272;2023-02-02T04:00:35;9.10;99.90
21035;DHT22;10676;50.848;3.272;2023-02-02T04:03:01;9.10;99.90
21035;DHT22;10676;50.848;3.272;2023-02-02T04:05:27;9.10;99.90
21035;DHT22;10676;50.848;3.272;2023-02-02T04:07:53;9.10;99.90
21035;DHT22;10676;50.848;3.272;2023-02-02T04:10:19;9.10;99.90
21035;DHT22;10676;50.848;3.272;2023-02-02T04:12:44;9.10;99.90
21035;DHT22;10676;50.848;3.272;2023-02-02T04:15:10;9.10;99.90
21035;DHT22;10676;50.848;3.272;2023-02-02T04:17:36;9.10;99.90
21035;DHT22;10676;50.848;3.272;2023-02-02T04:20:03;9.10;99.90
21035;DHT22;10676;50.848;3.272;2023-02-02T04:22:29;9.20;99.90
21035;DHT22;10676;50.848;3.272;2023-02-02T04:24:55;9.10;99.90
21035;DHT22;10676;50.848;3.272;2023-02-02T04:27:20;9.20;99.90
21035;DHT22;10676;50.848;3.272;2023-02-02T04:29:46;9.10;99.90
21035;DHT22;10676;50.848;3.272;2023-02-02T04:32:14;9.10;99.90
21035;DHT22;10676;50.848;3.272;2023-02-02T04:34:40;9.10;99.90
21035;DHT22;10676;50.848;3.272;2023-02-02T04:37:05;9.10;99.90
21035;DHT22;10676;50.848;3.272;2023-02-02T04:39:31;9.10;99.90
21035;DHT22;10676;50.848;3.272;2023-02-02T04:41:57;9.10;99.90
21035;DHT22;10676;50.848;3.272;2023-02-02T04:44:22;9.00;99.90
21035;DHT22;10676;50.848;3.272;2023-02-02T04:46:48;9.10;99.90
21035;DHT22;10676;50.848;3.272;2023-02-02T04:49:14;9.10;99.90
21035;DHT22;10676;50.848;3.272;2023-02-02T04:51:39;9.10;99.90
21035;DHT22;10676;50.848;3.272;2023-02-02T04:54:06;9.10;99.90
21035;DHT22;10676;50.848;3.272;2023-02-02T04:56:32;9.10;99.90
21035;DHT22;10676;50.848;3.272;2023-02-02T04:58:58;9.20;99.90
21035;DHT22;10676;50.848;3.272;2023-02-02T05:01:23;9.10;99.90
21035;DHT22;10676;50.848;3.272;2023-02-02T05:03:50;9.10;99.90
21035;DHT22;10676;50.848;3.272;2023-02-02T05:06:16;9.00;99.90
21035;DHT22;10676;50.848;3.272;2023-02-02T05:08:44;9.00;99.90
21035;DHT22;10676;50.848;3.272;2023-02-02T05:11:11;9.00;99.90
21035;DHT22;10676;50.848;3.272;2023-02-02T05:13:37;9.00;99.90
21035;DHT22;10676;50.848;3.272;2023-02-02T05:16:03;9.10;99.90
21035;DHT22;10676;50.848;3.272;2023-02-02T05:18:29;9.10;99.90
21035;DHT22;10676;50.848;3.272;2023-02-02T05:20:58;9.10;99.90
21035;DHT22;10676;50.848;3.272;2023-02-02T05:23:25;9.10;99.90
21035;DHT22;10676;50.848;3.272;2023-02-02T05:25:52;9.10;99.90
21035;DHT22;10676;50.848;3.272;2023-02-02T05:28:19;9.10;99.90
21035;DHT22;10676;50.848;3.272;2023-02-02T05:30:45;9.10;99.90
21035;DHT22;10676;50.848;3.272;2023-02-02T05:33:11;9.10;99.90
21035;DHT22;10676;50.848;3.272;2023-02-02T05:35:37;9.10;99.90
21035;DHT22;10676;50.848;3.272;2023-02-02T05:38:03;9.10;99.90
21035;DHT22;10676;50.848;3.272;2023-02-02T05:40:28;9.00;99.90
21035;DHT22;10676;50.848;3.272;2023-02-02T05:42:54;9.10;99.90
21035;DHT22;10676;50.848;3.272;2023-02-02T05:45:20;9.00;99.90
21035;DHT22;10676;50.848;3.272;2023-02-02T05:47:46;9.00;99.90
21035;DHT22;10676;50.848;3.272;2023-02-02T05:50:12;9.00;99.90
21035;DHT22;10676;50.848;3.272;2023-02-02T05:52:38;9.10;99.90
21035;DHT22;10676;50.848;3.272;2023-02-02T05:55:06;9.00;99.90
21035;DHT22;10676;50.848;3.272;2023-02-02T05:57:31;9.00;99.90
21035;DHT22;10676;50.848;3.272;2023-02-02T05:59:57;9.00;99.90
21035;DHT22;10676;50.848;3.272;2023-02-02T06:02:23;9.10;99.90
21035;DHT22;10676;50.848;3.272;2023-02-02T06:04:48;9.10;99.90
21035;DHT22;10676;50.848;3.272;2023-02-02T06:07:14;9.10;99.90
21035;DHT22;10676;50.848;3.272;2023-02-02T06:09:40;9.10;99.90
21035;DHT22;10676;50.848;3.272;2023-02-02T06:12:05;9.10;99.90
21035;DHT22;10676;50.848;3.272;2023-02-02T06:14:31;9.10;99.90
21035;DHT22;10676;50.848;3.272;2023-02-02T06:16:57;9.10;99.90
21035;DHT22;10676;50.848;3.272;2023-02-02T06:19:23;9.00;99.90
21035;DHT22;10676;50.848;3.272;2023-02-02T06:21:48;9.10;99.90
21035;DHT22;10676;50.848;3.272;2023-02-02T06:24:14;9.10;99.90
21035;DHT22;10676;50.848;3.272;2023-02-02T06:26:40;9.10;99.90
21035;DHT22;10676;50.848;3.272;2023-02-02T06:29:06;9.10;99.90
21035;DHT22;10676;50.848;3.272;2023-02-02T06:31:32;9.10;99.90
21035;DHT22;10676;50.848;3.272;2023-02-02T06:33:58;9.10;99.90
21035;DHT22;10676;50.848;3.272;2023-02-02T06:36:26;9.10;99.90
21035;DHT22;10676;50.848;3.272;2023-02-02T06:38:53;9.10;99.90
21035;DHT22;10676;50.848;3.272;2023-02-02T06:41:20;9.10;99.90
21035;DHT22;10676;50.848;3.272;2023-02-02T06:43:47;9.00;99.90
21035;DHT22;10676;50.848;3.272;2023-02-02T06:46:12;9.00;99.90
21035;DHT22;10676;50.848;3.272;2023-02-02T06:48:39;9.00;99.90
21035;DHT22;10676;50.848;3.272;2023-02-02T06:51:05;9.00;99.90
21035;DHT22;10676;50.848;3.272;2023-02-02T06:53:34;8.90;99.90
21035;DHT22;10676;50.848;3.272;2023-02-02T06:56:01;8.90;99.90
21035;DHT22;10676;50.848;3.272;2023-02-02T06:58:29;8.90;99.90
21035;DHT22;10676;50.848;3.272;2023-02-02T07:01:06;8.90;99.90
21035;DHT22;10676;50.848;3.272;2023-02-02T07:03:32;8.90;99.90
21035;DHT22;10676;50.848;3.272;2023-02-02T07:05:58;9.00;99.90
21035;DHT22;10676;50.848;3.272;2023-02-02T07:08:24;9.00;99.90
21035;DHT22;10676;50.848;3.272;2023-02-02T07:10:50;9.10;99.90
21035;DHT22;10676;50.848;3.272;2023-02-02T07:13:16;9.10;99.90
21035;DHT22;10676;50.848;3.272;2023-02-02T07:15:42;9.10;99.90
21035;DHT22;10676;50.848;3.272;2023-02-02T07:18:07;9.10;99.90
21035;DHT22;10676;50.848;3.272;2023-02-02T07:20:33;9.20;99.90
21035;DHT22;10676;50.848;3.272;2023-02-02T07:22:59;9.20;99.90
21035;DHT22;10676;50.848;3.272;2023-02-02T07:25:26;9.20;99.90
21035;DHT22;10676;50.848;3.272;2023-02-02T07:27:53;9.20;99.90
21035;DHT22;10676;50.848;3.272;2023-02-02T07:30:19;9.30;99.90
21035;DHT22;10676;50.848;3.272;2023-02-02T07:32:49;9.30;99.90
21035;DHT22;10676;50.848;3.272;2023-02-02T07:35:15;9.30;99.90
21035;DHT22;10676;50.848;3.272;2023-02-02T07:37:41;9.30;99.90
21035;DHT22;10676;50.848;3.272;2023-02-02T07:40:08;9.30;99.90
21035;DHT22;10676;50.848;3.272;2023-02-02T07:42:34;9.40;99.90
21035;DHT22;10676;50.848;3.272;2023-02-02T07:44:59;9.40;99.90
21035;DHT22;10676;50.848;3.272;2023-02-02T07:47:26;9.40;99.90
21035;DHT22;10676;50.848;3.272;2023-02-02T07:49:51;9.40;99.90
21035;DHT22;10676;50.848;3.272;2023-02-02T07:52:17;9.40;99.90
21035;DHT22;10676;50.848;3.272;2023-02-02T07:54:42;9.40;99.90
21035;DHT22;10676;50.848;3.272;2023-02-02T07:57:08;9.50;99.90
21035;DHT22;10676;50.848;3.272;2023-02-02T07:59:34;9.50;99.90
21035;DHT22;10676;50.848;3.272;2023-02-02T08:01:59;9.50;99.90
21035;DHT22;10676;50.848;3.272;2023-02-02T08:04:25;9.50;99.90
21035;DHT22;10676;50.848;3.272;2023-02-02T08:06:51;9.60;99.90
21035;DHT22;10676;50.848;3.272;2023-02-02T08:09:16;9.50;99.90
21035;DHT22;10676;50.848;3.272;2023-02-02T08:11:42;9.50;99.90
21035;DHT22;10676;50.848;3.272;2023-02-02T08:14:11;9.60;99.90
21035;DHT22;10676;50.848;3.272;2023-02-02T08:16:37;9.60;99.90
21035;DHT22;10676;50.848;3.272;2023-02-02T08:19:03;9.60;99.90
21035;DHT22;10676;50.848;3.272;2023-02-02T08:21:32;9.60;99.90
21035;DHT22;10676;50.848;3.272;2023-02-02T08:23:58;9.60;99.90
21035;DHT22;10676;50.848;3.272;2023-02-02T08:26:26;9.70;99.90
21035;DHT22;10676;50.848;3.272;2023-02-02T08:29:00;9.70;99.90
21035;DHT22;10676;50.848;3.272;2023-02-02T08:31:29;9.70;99.90
21035;DHT22;10676;50.848;3.272;2023-02-02T08:33:56;9.70;99.90
21035;DHT22;10676;50.848;3.272;2023-02-02T08:36:26;9.80;99.90
21035;DHT22;10676;50.848;3.272;2023-02-02T08:38:53;9.80;99.90
21035;DHT22;10676;50.848;3.272;2023-02-02T08:41:22;9.90;99.90
21035;DHT22;10676;50.848;3.272;2023-02-02T08:43:48;9.90;99.90
21035;DHT22;10676;50.848;3.272;2023-02-02T08:46:16;9.90;99.90
21035;DHT22;10676;50.848;3.272;2023-02-02T08:48:42;10.00;99.90
21035;DHT22;10676;50.848;3.272;2023-02-02T08:51:14;10.00;99.90
21035;DHT22;10676;50.848;3.272;2023-02-02T08:53:41;10.10;99.90
21035;DHT22;10676;50.848;3.272;2023-02-02T08:56:15;10.10;99.90
21035;DHT22;10676;50.848;3.272;2023-02-02T08:58:54;10.20;99.90
21035;DHT22;10676;50.848;3.272;2023-02-02T09:01:32;10.20;99.90
21035;DHT22;10676;50.848;3.272;2023-02-02T09:04:00;10.30;99.90
21035;DHT22;10676;50.848;3.272;2023-02-02T09:06:34;10.20;99.90
21035;DHT22;10676;50.848;3.272;2023-02-02T09:09:01;10.30;99.90
21035;DHT22;10676;50.848;3.272;2023-02-02T09:11:28;10.30;99.90
21035;DHT22;10676;50.848;3.272;2023-02-02T09:13:55;10.30;99.90
21035;DHT22;10676;50.848;3.272;2023-02-02T09:16:23;10.40;99.90
21035;DHT22;10676;50.848;3.272;2023-02-02T09:18:49;10.50;99.90
21035;DHT22;10676;50.848;3.272;2023-02-02T09:21:16;10.70;99.90
21035;DHT22;10676;50.848;3.272;2023-02-02T09:23:43;10.60;99.90
21035;DHT22;10676;50.848;3.272;2023-02-02T09:28:47;10.80;99.90
21035;DHT22;10676;50.848;3.272;2023-02-02T09:31:14;10.90;99.90
21035;DHT22;10676;50.848;3.272;2023-02-02T09:33:40;11.00;99.90
21035;DHT22;10676;50.848;3.272;2023-02-02T09:36:12;11.20;99.90
21035;DHT22;10676;50.848;3.272;2023-02-02T09:38:38;11.40;99.90
21035;DHT22;10676;50.848;3.272;2023-02-02T09:44:21;11.50;99.90
21035;DHT22;10676;50.848;3.272;2023-02-02T09:47:19;11.50;99.90
21035;DHT22;10676;50.848;3.272;2023-02-02T09:52:26;11.60;99.90
21035;DHT22;10676;50.848;3.272;2023-02-02T09:55:11;11.70;99.90
21035;DHT22;10676;50.848;3.272;2023-02-02T10:00:43;11.90;99.90
21035;DHT22;10676;50.848;3.272;2023-02-02T10:03:16;12.20;99.90
21035;DHT22;10676;50.848;3.272;2023-02-02T10:06:31;12.50;99.90
21035;DHT22;10676;50.848;3.272;2023-02-02T10:09:07;12.80;99.90
21035;DHT22;10676;50.848;3.272;2023-02-02T10:14:24;13.90;99.90
21035;DHT22;10676;50.848;3.272;2023-02-02T10:16:54;14.30;99.90
21035;DHT22;10676;50.848;3.272;2023-02-02T10:19:22;14.70;99.90
21035;DHT22;10676;50.848;3.272;2023-02-02T10:22:14;15.10;99.90
21035;DHT22;10676;50.848;3.272;2023-02-02T10:24:42;15.70;99.90
21035;DHT22;10676;50.848;3.272;2023-02-02T10:27:14;16.00;99.90
21035;DHT22;10676;50.848;3.272;2023-02-02T10:38:19;17.00;99.90
21035;DHT22;10676;50.848;3.272;2023-02-02T10:49:14;15.40;99.90
21035;DHT22;10676;50.848;3.272;2023-02-02T10:51:48;14.80;99.90
21035;DHT22;10676;50.848;3.272;2023-02-02T11:02:37;14.10;99.90
21035;DHT22;10676;50.848;3.272;2023-02-02T11:05:05;14.20;99.90
21035;DHT22;10676;50.848;3.272;2023-02-02T11:07:52;14.40;99.90
21035;DHT22;10676;50.848;3.272;2023-02-02T11:10:18;14.60;99.90
21035;DHT22;10676;50.848;3.272;2023-02-02T11:12:45;14.70;99.90
21035;DHT22;10676;50.848;3.272;2023-02-02T11:15:28;14.70;99.90
21035;DHT22;10676;50.848;3.272;2023-02-02T11:17:55;14.50;99.90
21035;DHT22;10676;50.848;3.272;2023-02-02T11:20:24;14.60;99.90
21035;DHT22;10676;50.848;3.272;2023-02-02T11:23:00;14.80;99.90
21035;DHT22;10676;50.848;3.272;2023-02-02T11:25:36;15.10;99.90
21035;DHT22;10676;50.848;3.272;2023-02-02T11:28:21;15.30;99.90
21035;DHT22;10676;50.848;3.272;2023-02-02T11:30:50;15.40;99.90
21035;DHT22;10676;50.848;3.272;2023-02-02T11:33:26;15.70;99.90
21035;DHT22;10676;50.848;3.272;2023-02-02T11:36:17;15.80;99.90
21035;DHT22;10676;50.848;3.272;2023-02-02T11:38:43;15.80;99.90
21035;DHT22;10676;50.848;3.272;2023-02-02T11:41:09;16.00;99.90
21035;DHT22;10676;50.848;3.272;2023-02-02T11:43:51;16.20;99.90
21035;DHT22;10676;50.848;3.272;2023-02-02T11:46:27;16.40;99.90
21035;DHT22;10676;50.848;3.272;2023-02-02T11:49:04;16.30;99.90
21035;DHT22;10676;50.848;3.272;2023-02-02T11:51:34;16.10;99.90
21035;DHT22;10676;50.848;3.272;2023-02-02T11:54:24;15.70;99.90
21035;DHT22;10676;50.848;3.272;2023-02-02T11:56:56;15.50;99.90
21035;DHT22;10676;50.848;3.272;2023-02-02T11:59:38;15.10;99.90
21035;DHT22;10676;50.848;3.272;2023-02-02T12:02:29;14.50;99.90
21035;DHT22;10676;50.848;3.272;2023-02-02T12:07:45;13.60;99.90
21035;DHT22;10676;50.848;3.272;2023-02-02T12:10:25;13.30;99.90
21035;DHT22;10676;50.848;3.272;2023-02-02T12:21:05;12.80;99.90
21035;DHT22;10676;50.848;3.272;2023-02-02T12:23:45;12.80;99.90
21035;DHT22;10676;50.848;3.272;2023-02-02T12:26:28;12.70;99.90
21035;DHT22;10676;50.848;3.272;2023-02-02T12:37:01;12.40;99.90
21035;DHT22;10676;50.848;3.272;2023-02-02T12:40:13;12.40;99.90
21035;DHT22;10676;50.848;3.272;2023-02-02T12:48:37;12.50;99.90
21035;DHT22;10676;50.848;3.272;2023-02-02T12:56:48;12.70;99.90
21035;DHT22;10676;50.848;3.272;2023-02-02T13:07:36;12.90;99.90
21035;DHT22;10676;50.848;3.272;2023-02-02T13:13:11;13.00;99.90
21035;DHT22;10676;50.848;3.272;2023-02-02T13:15:44;12.90;99.90
21035;DHT22;10676;50.848;3.272;2023-02-02T13:18:27;12.90;99.90
21035;DHT22;10676;50.848;3.272;2023-02-02T13:23:42;12.70;99.90
21035;DHT22;10676;50.848;3.272;2023-02-02T13:26:35;12.60;99.90
21035;DHT22;10676;50.848;3.272;2023-02-02T13:29:10;12.50;99.90
21035;DHT22;10676;50.848;3.272;2023-02-02T13:34:22;12.50;99.90
21035;DHT22;10676;50.848;3.272;2023-02-02T13:37:00;12.50;99.90
21035;DHT22;10676;50.848;3.272;2023-02-02T13:39:43;12.40;99.90
21035;DHT22;10676;50.848;3.272;2023-02-02T13:45:00;12.50;99.90
21035;DHT22;10676;50.848;3.272;2023-02-02T13:47:37;12.50;99.90
21035;DHT22;10676;50.848;3.272;2023-02-02T13:50:11;12.50;99.90
21035;DHT22;10676;50.848;3.272;2023-02-02T13:52:56;12.50;99.90
21035;DHT22;10676;50.848;3.272;2023-02-02T13:55:45;12.50;99.90
21035;DHT22;10676;50.848;3.272;2023-02-02T14:01:06;12.70;99.90
21035;DHT22;10676;50.848;3.272;2023-02-02T14:03:40;12.70;99.90
21035;DHT22;10676;50.848;3.272;2023-02-02T14:06:14;12.50;99.90
21035;DHT22;10676;50.848;3.272;2023-02-02T14:11:28;12.40;99.90
21035;DHT22;10676;50.848;3.272;2023-02-02T14:14:19;12.40;99.90
21035;DHT22;10676;50.848;3.272;2023-02-02T14:19:56;12.40;99.90
21035;DHT22;10676;50.848;3.272;2023-02-02T14:22:47;12.40;99.90
21035;DHT22;10676;50.848;3.272;2023-02-02T14:27:59;12.50;99.90
21035;DHT22;10676;50.848;3.272;2023-02-02T14:30:29;12.40;99.90
21035;DHT22;10676;50.848;3.272;2023-02-02T14:33:25;12.40;99.90
21035;DHT22;10676;50.848;3.272;2023-02-02T14:35:57;12.30;99.90
21035;DHT22;10676;50.848;3.272;2023-02-02T14:39:14;12.30;99.90
21035;DHT22;10676;50.848;3.272;2023-02-02T14:41:46;12.30;99.90
21035;DHT22;10676;50.848;3.272;2023-02-02T14:44:32;12.20;99.90
21035;DHT22;10676;50.848;3.272;2023-02-02T14:47:01;12.20;99.90
21035;DHT22;10676;50.848;3.272;2023-02-02T14:49:32;12.10;99.90
21035;DHT22;10676;50.848;3.272;2023-02-02T14:52:00;12.00;99.90
21035;DHT22;10676;50.848;3.272;2023-02-02T14:54:38;12.00;99.90
21035;DHT22;10676;50.848;3.272;2023-02-02T14:57:20;11.90;99.90
21035;DHT22;10676;50.848;3.272;2023-02-02T14:59:47;11.80;99.90
21035;DHT22;10676;50.848;3.272;2023-02-02T15:02:18;11.80;99.90
21035;DHT22;10676;50.848;3.272;2023-02-02T15:04:44;11.80;99.90
21035;DHT22;10676;50.848;3.272;2023-02-02T15:07:36;11.90;99.90
21035;DHT22;10676;50.848;3.272;2023-02-02T15:10:03;11.90;99.90
21035;DHT22;10676;50.848;3.272;2023-02-02T15:12:34;11.90;99.90
21035;DHT22;10676;50.848;3.272;2023-02-02T15:15:22;11.90;99.90
21035;DHT22;10676;50.848;3.272;2023-02-02T15:17:59;11.90;99.90
21035;DHT22;10676;50.848;3.272;2023-02-02T15:20:44;11.90;99.90
21035;DHT22;10676;50.848;3.272;2023-02-02T15:23:35;11.80;99.90
21035;DHT22;10676;50.848;3.272;2023-02-02T15:26:28;11.90;99.90
21035;DHT22;10676;50.848;3.272;2023-02-02T15:29:05;11.90;99.90
21035;DHT22;10676;50.848;3.272;2023-02-02T15:31:43;11.90;99.90
21035;DHT22;10676;50.848;3.272;2023-02-02T15:34:19;11.80;99.90
21035;DHT22;10676;50.848;3.272;2023-02-02T15:36:50;11.70;99.90
21035;DHT22;10676;50.848;3.272;2023-02-02T15:39:36;11.60;99.90
21035;DHT22;10676;50.848;3.272;2023-02-02T15:42:14;11.60;99.90
21035;DHT22;10676;50.848;3.272;2023-02-02T15:44:59;11.60;99.90
21035;DHT22;10676;50.848;3.272;2023-02-02T15:47:34;11.50;99.90
21035;DHT22;10676;50.848;3.272;2023-02-02T15:50:00;11.50;99.90
21035;DHT22;10676;50.848;3.272;2023-02-02T15:52:30;11.50;99.90
21035;DHT22;10676;50.848;3.272;2023-02-02T15:57:46;11.40;99.90
21035;DHT22;10676;50.848;3.272;2023-02-02T16:00:28;11.30;99.90
21035;DHT22;10676;50.848;3.272;2023-02-02T16:03:11;11.20;99.90
21035;DHT22;10676;50.848;3.272;2023-02-02T16:05:49;11.10;99.90
21035;DHT22;10676;50.848;3.272;2023-02-02T16:08:36;10.90;99.90
21035;DHT22;10676;50.848;3.272;2023-02-02T16:11:09;10.80;99.90
21035;DHT22;10676;50.848;3.272;2023-02-02T16:13:36;10.70;99.90
21035;DHT22;10676;50.848;3.272;2023-02-02T16:16:05;10.60;99.90
21035;DHT22;10676;50.848;3.272;2023-02-02T16:18:33;10.60;99.90
21035;DHT22;10676;50.848;3.272;2023-02-02T16:21:03;10.50;99.90
21035;DHT22;10676;50.848;3.272;2023-02-02T16:23:33;10.40;99.90
21035;DHT22;10676;50.848;3.272;2023-02-02T16:26:02;10.30;99.90
21035;DHT22;10676;50.848;3.272;2023-02-02T16:28:29;10.30;99.90
21035;DHT22;10676;50.848;3.272;2023-02-02T16:30:58;10.30;99.90
21035;DHT22;10676;50.848;3.272;2023-02-02T16:33:41;10.20;99.90
21035;DHT22;10676;50.848;3.272;2023-02-02T16:36:25;10.20;99.90
21035;DHT22;10676;50.848;3.272;2023-02-02T16:38:51;10.20;99.90
21035;DHT22;10676;50.848;3.272;2023-02-02T16:41:25;10.20;99.90
21035;DHT22;10676;50.848;3.272;2023-02-02T16:43:51;10.20;99.90
21035;DHT22;10676;50.848;3.272;2023-02-02T16:46:40;10.30;99.90
21035;DHT22;10676;50.848;3.272;2023-02-02T16:49:14;10.30;99.90
21035;DHT22;10676;50.848;3.272;2023-02-02T16:51:41;10.30;99.90
21035;DHT22;10676;50.848;3.272;2023-02-02T16:56:38;10.30;99.90
21035;DHT22;10676;50.848;3.272;2023-02-02T16:59:32;10.30;99.90
21035;DHT22;10676;50.848;3.272;2023-02-02T17:02:28;10.30;99.90
21035;DHT22;10676;50.848;3.272;2023-02-02T17:05:17;10.30;99.90
21035;DHT22;10676;50.848;3.272;2023-02-02T17:07:54;10.10;99.90
21035;DHT22;10676;50.848;3.272;2023-02-02T17:10:35;10.00;99.90
21035;DHT22;10676;50.848;3.272;2023-02-02T17:13:24;9.90;99.90
21035;DHT22;10676;50.848;3.272;2023-02-02T17:15:51;9.90;99.90
21035;DHT22;10676;50.848;3.272;2023-02-02T17:18:17;9.80;99.90
21035;DHT22;10676;50.848;3.272;2023-02-02T17:20:42;9.80;99.90
21035;DHT22;10676;50.848;3.272;2023-02-02T17:23:14;9.80;99.90
21035;DHT22;10676;50.848;3.272;2023-02-02T17:25:42;9.90;99.90
21035;DHT22;10676;50.848;3.272;2023-02-02T17:28:16;9.90;99.90
21035;DHT22;10676;50.848;3.272;2023-02-02T17:30:45;9.90;99.90
21035;DHT22;10676;50.848;3.272;2023-02-02T17:33:13;9.90;99.90
21035;DHT22;10676;50.848;3.272;2023-02-02T17:35:39;10.00;99.90
21035;DHT22;10676;50.848;3.272;2023-02-02T17:38:05;10.00;99.90
21035;DHT22;10676;50.848;3.272;2023-02-02T17:40:31;10.10;99.90
21035;DHT22;10676;50.848;3.272;2023-02-02T17:42:58;10.10;99.90
21035;DHT22;10676;50.848;3.272;2023-02-02T17:45:35;10.20;99.90
21035;DHT22;10676;50.848;3.272;2023-02-02T17:48:02;10.20;99.90
21035;DHT22;10676;50.848;3.272;2023-02-02T17:50:29;10.30;99.90
21035;DHT22;10676;50.848;3.272;2023-02-02T17:52:55;10.30;99.90
21035;DHT22;10676;50.848;3.272;2023-02-02T17:55:30;10.30;99.90
21035;DHT22;10676;50.848;3.272;2023-02-02T17:57:56;10.20;99.90
21035;DHT22;10676;50.848;3.272;2023-02-02T18:00:24;10.20;99.90
21035;DHT22;10676;50.848;3.272;2023-02-02T18:02:53;10.20;99.90
21035;DHT22;10676;50.848;3.272;2023-02-02T18:05:19;10.20;99.90
21035;DHT22;10676;50.848;3.272;2023-02-02T18:07:45;10.10;99.90
21035;DHT22;10676;50.848;3.272;2023-02-02T18:10:12;10.10;99.90